gordon.dewis.ca - Random musings from Gordon

Subscribe

Seriously? Snow in the forecast? Why?

April 25, 2016 @ 15:31 By: gordon Category: General, Weather

Have we done something wrong? I just took a look at the aviation forecast for Ottawa and am a bit unimpressed as result:

TAF CYOW 251738Z 2518/2618 30007KT P6SM BKN220 
 FM260000 VRB03KT P6SM BKN160 
 FM260600 05010KT P6SM OVC090 
 FM261100 07012KT 3SM -SN OVC060 
 FM261500 06012KT P6SM BKN120 
 RMK NXT FCST BY 252100Z=

As you can see in the line I’ve highlighted in red, there’s light snow forecast between 7AM (1100Z) and 1PM (1500Z).

If this actually happens, the morning commute will be insane as everyone has forgotten how to drive in the snow by now. Some of my coworkers have had their snow tires removed, too.

I know that the snow won’t hang around, but I really really really don’t want any more snow. (Ever.)

Leave a Reply

CAPTCHA
*